Terminal Aerodrome Forecast
Issued by NWS

Home | Current Version | Previous Version | Text Only | Print | Product List | Glossary On
Versions: 1 2 3 4 5 6 7 8 9 10 11 12 13 14 15 16 17 18 19 20 21 22
000
FTUS43 KMQT 051122
TAFSAW
TAF
KSAW 051122Z 0512/0612 00000KT 1SM BR BKN001
     FM051400 18003KT P6SM SCT018
     FM051500 18004KT P6SM SCT035
     FM051700 19005KT P6SM SCT070
     FM060500 19007KT 6SM BR BKN080
     FM060600 19007KT 6SM BR BKN026
     FM060900 19006KT 3SM BR BKN040
     FM061100 20006KT 2SM BR BKN016=

USA.gov is the U.S. government's official web portal to all federal, state and local government web resources and services.